sensor_id;sensor_type;location;lat;lon;timestamp;pressure;altitude;pressure_sealevel;temperature;humidity
69855;BME280;57146;48.140;16.304;2023-04-21T00:01:27;99363.22;;;7.44;90.58
69855;BME280;57146;48.140;16.304;2023-04-21T00:03:53;99354.44;;;7.59;89.79
69855;BME280;57146;48.140;16.304;2023-04-21T00:06:21;99358.16;;;7.53;89.69
69855;BME280;57146;48.140;16.304;2023-04-21T00:08:48;99356.97;;;7.40;89.89
69855;BME280;57146;48.140;16.304;2023-04-21T00:11:16;99356.81;;;7.56;90.18
69855;BME280;57146;48.140;16.304;2023-04-21T00:13:43;99357.66;;;7.75;90.48
69855;BME280;57146;48.140;16.304;2023-04-21T00:16:10;99357.28;;;7.87;89.77
69855;BME280;57146;48.140;16.304;2023-04-21T00:18:37;99350.03;;;8.03;89.02
69855;BME280;57146;48.140;16.304;2023-04-21T00:21:05;99349.91;;;8.13;88.05
69855;BME280;57146;48.140;16.304;2023-04-21T00:23:32;99349.94;;;7.65;89.27
69855;BME280;57146;48.140;16.304;2023-04-21T00:25:59;99347.81;;;7.67;88.98
69855;BME280;57146;48.140;16.304;2023-04-21T00:28:25;99341.69;;;7.77;89.40
69855;BME280;57146;48.140;16.304;2023-04-21T00:30:52;99346.41;;;7.99;89.20
69855;BME280;57146;48.140;16.304;2023-04-21T00:33:19;99356.63;;;7.76;88.53
69855;BME280;57146;48.140;16.304;2023-04-21T00:35:46;99363.53;;;7.38;89.94
69855;BME280;57146;48.140;16.304;2023-04-21T00:38:13;99359.44;;;7.27;90.41
69855;BME280;57146;48.140;16.304;2023-04-21T00:40:41;99359.13;;;7.33;90.21
69855;BME280;57146;48.140;16.304;2023-04-21T00:43:10;99348.22;;;7.50;89.60
69855;BME280;57146;48.140;16.304;2023-04-21T00:45:37;99347.75;;;7.43;89.46
69855;BME280;57146;48.140;16.304;2023-04-21T00:48:04;99342.63;;;7.62;89.42
69855;BME280;57146;48.140;16.304;2023-04-21T00:50:32;99343.75;;;7.80;88.55
69855;BME280;57146;48.140;16.304;2023-04-21T00:53:00;99334.75;;;7.86;88.23
69855;BME280;57146;48.140;16.304;2023-04-21T00:55:28;99336.88;;;7.60;88.58
69855;BME280;57146;48.140;16.304;2023-04-21T00:57:56;99335.59;;;7.28;90.82
69855;BME280;57146;48.140;16.304;2023-04-21T01:00:26;99344.50;;;7.27;90.52
69855;BME280;57146;48.140;16.304;2023-04-21T01:02:55;99338.75;;;7.25;90.64
69855;BME280;57146;48.140;16.304;2023-04-21T01:05:22;99341.84;;;7.32;89.72
69855;BME280;57146;48.140;16.304;2023-04-21T01:07:50;99341.91;;;7.27;90.42
69855;BME280;57146;48.140;16.304;2023-04-21T01:10:17;99336.00;;;7.11;91.15
69855;BME280;57146;48.140;16.304;2023-04-21T01:12:46;99331.03;;;7.10;91.69
69855;BME280;57146;48.140;16.304;2023-04-21T01:15:15;99335.06;;;6.97;91.63
69855;BME280;57146;48.140;16.304;2023-04-21T01:17:43;99339.53;;;6.96;91.66
69855;BME280;57146;48.140;16.304;2023-04-21T01:20:13;99340.28;;;6.97;91.65
69855;BME280;57146;48.140;16.304;2023-04-21T01:22:41;99342.13;;;6.96;92.20
69855;BME280;57146;48.140;16.304;2023-04-21T01:25:09;99338.50;;;6.98;92.47
69855;BME280;57146;48.140;16.304;2023-04-21T01:27:37;99337.84;;;7.11;92.84
69855;BME280;57146;48.140;16.304;2023-04-21T01:30:06;99333.94;;;7.08;93.23
69855;BME280;57146;48.140;16.304;2023-04-21T01:32:34;99339.34;;;6.88;94.08
69855;BME280;57146;48.140;16.304;2023-04-21T01:35:01;99329.34;;;6.95;94.70
69855;BME280;57146;48.140;16.304;2023-04-21T01:37:30;99332.91;;;7.04;94.13
69855;BME280;57146;48.140;16.304;2023-04-21T01:40:00;99330.91;;;6.96;94.67
69855;BME280;57146;48.140;16.304;2023-04-21T01:42:33;99330.50;;;7.13;93.94
69855;BME280;57146;48.140;16.304;2023-04-21T01:45:01;99336.28;;;7.10;94.15
69855;BME280;57146;48.140;16.304;2023-04-21T01:47:29;99332.28;;;7.17;93.95
69855;BME280;57146;48.140;16.304;2023-04-21T01:49:56;99334.03;;;7.27;93.39
69855;BME280;57146;48.140;16.304;2023-04-21T01:52:23;99336.47;;;7.18;94.23
69855;BME280;57146;48.140;16.304;2023-04-21T01:54:53;99334.50;;;7.34;93.32
69855;BME280;57146;48.140;16.304;2023-04-21T01:57:20;99329.50;;;7.38;93.51
69855;BME280;57146;48.140;16.304;2023-04-21T01:59:50;99335.34;;;7.30;94.15
69855;BME280;57146;48.140;16.304;2023-04-21T02:02:16;99332.63;;;7.40;93.43
69855;BME280;57146;48.140;16.304;2023-04-21T02:04:44;99339.97;;;7.38;93.35
69855;BME280;57146;48.140;16.304;2023-04-21T02:07:10;99333.75;;;7.29;94.05
69855;BME280;57146;48.140;16.304;2023-04-21T02:09:39;99330.66;;;7.27;94.28
69855;BME280;57146;48.140;16.304;2023-04-21T02:12:06;99335.81;;;7.32;94.08
69855;BME280;57146;48.140;16.304;2023-04-21T02:14:33;99329.28;;;7.29;94.18
69855;BME280;57146;48.140;16.304;2023-04-21T02:17:00;99334.88;;;7.23;94.36
69855;BME280;57146;48.140;16.304;2023-04-21T02:19:27;99332.72;;;7.30;93.86
69855;BME280;57146;48.140;16.304;2023-04-21T02:21:54;99331.88;;;7.34;93.45
69855;BME280;57146;48.140;16.304;2023-04-21T02:24:21;99326.81;;;7.43;91.43
69855;BME280;57146;48.140;16.304;2023-04-21T02:26:48;99336.97;;;7.20;92.58
69855;BME280;57146;48.140;16.304;2023-04-21T02:29:15;99337.84;;;7.11;94.15
69855;BME280;57146;48.140;16.304;2023-04-21T02:31:43;99335.75;;;7.13;94.01
69855;BME280;57146;48.140;16.304;2023-04-21T02:34:29;99343.59;;;7.13;93.00
69855;BME280;57146;48.140;16.304;2023-04-21T02:36:56;99345.28;;;6.93;94.59
69855;BME280;57146;48.140;16.304;2023-04-21T02:39:24;99334.88;;;6.88;94.35
69855;BME280;57146;48.140;16.304;2023-04-21T02:41:51;99322.81;;;6.92;94.12
69855;BME280;57146;48.140;16.304;2023-04-21T02:44:19;99339.59;;;6.86;94.31
69855;BME280;57146;48.140;16.304;2023-04-21T02:46:46;99337.56;;;6.78;94.28
69855;BME280;57146;48.140;16.304;2023-04-21T02:49:13;99335.13;;;6.92;94.19
69855;BME280;57146;48.140;16.304;2023-04-21T02:51:40;99333.91;;;7.13;93.30
69855;BME280;57146;48.140;16.304;2023-04-21T02:54:07;99330.13;;;7.25;92.51
69855;BME280;57146;48.140;16.304;2023-04-21T02:56:34;99329.59;;;7.28;91.76
69855;BME280;57146;48.140;16.304;2023-04-21T02:59:01;99340.44;;;7.11;91.63
69855;BME280;57146;48.140;16.304;2023-04-21T03:01:28;99336.19;;;6.91;92.38
69855;BME280;57146;48.140;16.304;2023-04-21T03:03:54;99330.66;;;6.92;91.81
69855;BME280;57146;48.140;16.304;2023-04-21T03:06:22;99332.88;;;6.75;92.57
69855;BME280;57146;48.140;16.304;2023-04-21T03:08:48;99333.69;;;6.70;93.14
69855;BME280;57146;48.140;16.304;2023-04-21T03:11:15;99333.75;;;6.65;92.87
69855;BME280;57146;48.140;16.304;2023-04-21T03:13:44;99341.31;;;6.67;93.01
69855;BME280;57146;48.140;16.304;2023-04-21T03:16:11;99342.97;;;6.53;92.94
69855;BME280;57146;48.140;16.304;2023-04-21T03:18:37;99339.81;;;6.56;93.02
69855;BME280;57146;48.140;16.304;2023-04-21T03:21:04;99344.91;;;6.37;93.35
69855;BME280;57146;48.140;16.304;2023-04-21T03:23:31;99350.66;;;6.29;93.81
69855;BME280;57146;48.140;16.304;2023-04-21T03:25:58;99348.88;;;6.19;94.31
69855;BME280;57146;48.140;16.304;2023-04-21T03:28:25;99348.38;;;6.17;94.59
69855;BME280;57146;48.140;16.304;2023-04-21T03:30:52;99346.25;;;6.19;94.88
69855;BME280;57146;48.140;16.304;2023-04-21T03:33:19;99348.34;;;6.22;94.12
69855;BME280;57146;48.140;16.304;2023-04-21T03:35:46;99335.88;;;6.09;94.72
69855;BME280;57146;48.140;16.304;2023-04-21T03:38:12;99349.16;;;6.17;94.20
69855;BME280;57146;48.140;16.304;2023-04-21T03:40:39;99340.81;;;6.10;94.17
69855;BME280;57146;48.140;16.304;2023-04-21T03:43:06;99340.00;;;6.15;93.95
69855;BME280;57146;48.140;16.304;2023-04-21T03:45:34;99346.31;;;6.09;94.05
69855;BME280;57146;48.140;16.304;2023-04-21T03:48:01;99348.44;;;6.02;94.61
69855;BME280;57146;48.140;16.304;2023-04-21T03:50:28;99343.75;;;5.98;94.37
69855;BME280;57146;48.140;16.304;2023-04-21T03:52:56;99345.31;;;5.99;94.54
69855;BME280;57146;48.140;16.304;2023-04-21T03:55:23;99347.41;;;5.92;95.02
69855;BME280;57146;48.140;16.304;2023-04-21T03:57:51;99356.81;;;5.98;94.87
69855;BME280;57146;48.140;16.304;2023-04-21T04:00:18;99353.13;;;5.99;95.00
69855;BME280;57146;48.140;16.304;2023-04-21T04:02:44;99346.59;;;5.97;94.68
69855;BME280;57146;48.140;16.304;2023-04-21T04:05:12;99352.59;;;5.97;93.93
69855;BME280;57146;48.140;16.304;2023-04-21T04:07:39;99354.97;;;5.89;94.81
69855;BME280;57146;48.140;16.304;2023-04-21T04:10:06;99355.75;;;5.89;94.49
69855;BME280;57146;48.140;16.304;2023-04-21T04:12:32;99356.31;;;5.81;95.59
69855;BME280;57146;48.140;16.304;2023-04-21T04:14:59;99353.16;;;5.84;95.63
69855;BME280;57146;48.140;16.304;2023-04-21T04:17:26;99358.91;;;5.76;96.33
69855;BME280;57146;48.140;16.304;2023-04-21T04:19:54;99362.28;;;5.87;95.62
69855;BME280;57146;48.140;16.304;2023-04-21T04:22:21;99362.03;;;5.88;96.28
69855;BME280;57146;48.140;16.304;2023-04-21T04:24:48;99367.00;;;5.95;96.17
69855;BME280;57146;48.140;16.304;2023-04-21T04:27:15;99367.75;;;5.90;96.08
69855;BME280;57146;48.140;16.304;2023-04-21T04:29:41;99365.44;;;5.94;96.07
69855;BME280;57146;48.140;16.304;2023-04-21T04:32:08;99373.75;;;6.01;96.16
69855;BME280;57146;48.140;16.304;2023-04-21T04:34:35;99368.81;;;5.99;95.91
69855;BME280;57146;48.140;16.304;2023-04-21T04:37:02;99370.66;;;5.94;96.87
69855;BME280;57146;48.140;16.304;2023-04-21T04:39:29;99368.56;;;5.91;97.16
69855;BME280;57146;48.140;16.304;2023-04-21T04:41:56;99371.72;;;5.98;97.45
69855;BME280;57146;48.140;16.304;2023-04-21T04:44:23;99371.66;;;6.08;97.43
69855;BME280;57146;48.140;16.304;2023-04-21T04:46:50;99369.28;;;6.17;97.01
69855;BME280;57146;48.140;16.304;2023-04-21T04:49:17;99366.13;;;6.15;97.78
69855;BME280;57146;48.140;16.304;2023-04-21T04:51:43;99369.81;;;6.14;97.96
69855;BME280;57146;48.140;16.304;2023-04-21T04:54:10;99386.47;;;6.28;98.06
69855;BME280;57146;48.140;16.304;2023-04-21T04:56:37;99377.03;;;6.37;97.52
69855;BME280;57146;48.140;16.304;2023-04-21T04:59:04;99388.72;;;6.50;96.75
69855;BME280;57146;48.140;16.304;2023-04-21T05:01:31;99382.97;;;6.53;96.54
69855;BME280;57146;48.140;16.304;2023-04-21T05:03:58;99381.13;;;6.59;97.08
69855;BME280;57146;48.140;16.304;2023-04-21T05:06:25;99387.63;;;6.61;97.68
69855;BME280;57146;48.140;16.304;2023-04-21T05:08:52;99387.84;;;6.70;97.71
69855;BME280;57146;48.140;16.304;2023-04-21T05:11:19;99393.03;;;6.75;97.91
69855;BME280;57146;48.140;16.304;2023-04-21T05:13:46;99391.72;;;6.78;98.46
69855;BME280;57146;48.140;16.304;2023-04-21T05:16:12;99395.09;;;6.83;98.19
69855;BME280;57146;48.140;16.304;2023-04-21T05:18:39;99403.97;;;6.87;98.36
69855;BME280;57146;48.140;16.304;2023-04-21T05:21:06;99399.72;;;6.96;98.19
69855;BME280;57146;48.140;16.304;2023-04-21T05:23:33;99396.25;;;7.06;98.06
69855;BME280;57146;48.140;16.304;2023-04-21T05:26:00;99402.19;;;7.17;97.39
69855;BME280;57146;48.140;16.304;2023-04-21T05:28:30;99400.56;;;7.26;97.21
69855;BME280;57146;48.140;16.304;2023-04-21T05:30:57;99405.75;;;7.31;94.87
69855;BME280;57146;48.140;16.304;2023-04-21T05:33:24;99403.09;;;7.36;93.60
69855;BME280;57146;48.140;16.304;2023-04-21T05:35:52;99399.06;;;7.49;92.40
69855;BME280;57146;48.140;16.304;2023-04-21T05:38:19;99401.72;;;7.73;91.59
69855;BME280;57146;48.140;16.304;2023-04-21T05:40:52;99409.94;;;7.90;91.30
69855;BME280;57146;48.140;16.304;2023-04-21T05:43:19;99404.63;;;7.96;91.70
69855;BME280;57146;48.140;16.304;2023-04-21T05:45:46;99405.16;;;7.98;91.44
69855;BME280;57146;48.140;16.304;2023-04-21T05:48:13;99409.16;;;8.14;91.97
69855;BME280;57146;48.140;16.304;2023-04-21T05:50:40;99401.34;;;8.33;93.10
69855;BME280;57146;48.140;16.304;2023-04-21T05:53:07;99413.31;;;8.63;91.51
69855;BME280;57146;48.140;16.304;2023-04-21T05:55:35;99402.38;;;8.75;91.58
69855;BME280;57146;48.140;16.304;2023-04-21T05:58:02;99408.47;;;8.89;90.96
69855;BME280;57146;48.140;16.304;2023-04-21T06:00:29;99412.88;;;9.13;89.54
69855;BME280;57146;48.140;16.304;2023-04-21T06:02:56;99412.16;;;9.26;88.20
69855;BME280;57146;48.140;16.304;2023-04-21T06:05:23;99418.50;;;9.39;89.40
69855;BME280;57146;48.140;16.304;2023-04-21T06:07:50;99408.53;;;9.54;88.08
69855;BME280;57146;48.140;16.304;2023-04-21T06:10:17;99422.97;;;9.71;87.16
69855;BME280;57146;48.140;16.304;2023-04-21T06:12:44;99414.50;;;9.88;86.04
69855;BME280;57146;48.140;16.304;2023-04-21T06:15:11;99410.53;;;10.04;85.92
69855;BME280;57146;48.140;16.304;2023-04-21T06:17:38;99408.59;;;10.23;84.94
69855;BME280;57146;48.140;16.304;2023-04-21T06:20:06;99406.94;;;10.41;82.76
69855;BME280;57146;48.140;16.304;2023-04-21T06:22:33;99412.28;;;10.50;83.29
69855;BME280;57146;48.140;16.304;2023-04-21T06:25:00;99408.38;;;10.61;82.95
69855;BME280;57146;48.140;16.304;2023-04-21T06:27:27;99405.53;;;10.71;82.48
69855;BME280;57146;48.140;16.304;2023-04-21T06:29:54;99414.34;;;10.89;82.07
69855;BME280;57146;48.140;16.304;2023-04-21T06:32:23;99409.81;;;11.03;80.56
69855;BME280;57146;48.140;16.304;2023-04-21T06:34:50;99411.31;;;11.18;81.61
69855;BME280;57146;48.140;16.304;2023-04-21T06:37:17;99411.66;;;11.25;79.32
69855;BME280;57146;48.140;16.304;2023-04-21T06:39:44;99415.44;;;11.33;79.76
69855;BME280;57146;48.140;16.304;2023-04-21T06:42:11;99413.31;;;11.44;79.95
69855;BME280;57146;48.140;16.304;2023-04-21T06:44:41;99411.09;;;11.60;79.02
69855;BME280;57146;48.140;16.304;2023-04-21T06:47:08;99411.63;;;11.70;77.67
69855;BME280;57146;48.140;16.304;2023-04-21T06:49:35;99410.28;;;11.82;78.15
69855;BME280;57146;48.140;16.304;2023-04-21T06:52:03;99410.16;;;11.87;77.04
69855;BME280;57146;48.140;16.304;2023-04-21T06:54:29;99402.16;;;12.01;77.68
69855;BME280;57146;48.140;16.304;2023-04-21T06:56:56;99411.50;;;12.15;76.22
69855;BME280;57146;48.140;16.304;2023-04-21T06:59:23;99417.09;;;12.22;75.95
69855;BME280;57146;48.140;16.304;2023-04-21T07:01:50;99414.50;;;12.31;75.01
69855;BME280;57146;48.140;16.304;2023-04-21T07:04:18;99418.25;;;12.48;73.12
69855;BME280;57146;48.140;16.304;2023-04-21T07:06:45;99420.28;;;12.51;72.02
69855;BME280;57146;48.140;16.304;2023-04-21T07:09:13;99413.31;;;12.63;71.31
69855;BME280;57146;48.140;16.304;2023-04-21T07:11:40;99425.59;;;12.77;72.09
69855;BME280;57146;48.140;16.304;2023-04-21T07:14:07;99410.69;;;12.89;70.99
69855;BME280;57146;48.140;16.304;2023-04-21T07:16:33;99421.25;;;12.98;70.41
69855;BME280;57146;48.140;16.304;2023-04-21T07:19:00;99412.25;;;12.99;70.27
69855;BME280;57146;48.140;16.304;2023-04-21T07:21:28;99415.78;;;13.12;70.67
69855;BME280;57146;48.140;16.304;2023-04-21T07:23:55;99415.47;;;13.22;68.85
69855;BME280;57146;48.140;16.304;2023-04-21T07:26:22;99413.94;;;13.30;67.80
69855;BME280;57146;48.140;16.304;2023-04-21T07:28:49;99410.84;;;13.28;66.95
69855;BME280;57146;48.140;16.304;2023-04-21T07:31:16;99420.00;;;13.39;66.30
69855;BME280;57146;48.140;16.304;2023-04-21T07:33:43;99422.00;;;13.51;66.50
69855;BME280;57146;48.140;16.304;2023-04-21T07:36:10;99422.28;;;13.58;65.18
69855;BME280;57146;48.140;16.304;2023-04-21T07:38:37;99426.81;;;13.57;65.32
69855;BME280;57146;48.140;16.304;2023-04-21T07:41:04;99426.13;;;13.69;65.54
69855;BME280;57146;48.140;16.304;2023-04-21T07:43:30;99421.59;;;13.78;67.18
69855;BME280;57146;48.140;16.304;2023-04-21T07:45:57;99425.44;;;13.89;66.64
69855;BME280;57146;48.140;16.304;2023-04-21T07:48:24;99420.44;;;13.97;65.81
69855;BME280;57146;48.140;16.304;2023-04-21T07:50:51;99424.59;;;14.06;65.20
69855;BME280;57146;48.140;16.304;2023-04-21T07:53:18;99426.28;;;14.20;65.59
69855;BME280;57146;48.140;16.304;2023-04-21T07:55:45;99425.78;;;14.18;64.90
69855;BME280;57146;48.140;16.304;2023-04-21T07:58:11;99417.22;;;14.21;64.43
69855;BME280;57146;48.140;16.304;2023-04-21T08:00:38;99420.97;;;14.20;64.47
69855;BME280;57146;48.140;16.304;2023-04-21T08:03:05;99422.47;;;14.29;64.61
69855;BME280;57146;48.140;16.304;2023-04-21T08:05:32;99426.56;;;14.18;64.64
69855;BME280;57146;48.140;16.304;2023-04-21T08:08:04;99425.25;;;14.33;64.35
69855;BME280;57146;48.140;16.304;2023-04-21T08:10:31;99423.69;;;14.32;64.93
69855;BME280;57146;48.140;16.304;2023-04-21T08:12:58;99419.09;;;14.50;64.71
69855;BME280;57146;48.140;16.304;2023-04-21T08:15:25;99418.72;;;14.60;63.09
69855;BME280;57146;48.140;16.304;2023-04-21T08:17:52;99421.88;;;14.53;63.34
69855;BME280;57146;48.140;16.304;2023-04-21T08:20:19;99420.91;;;14.58;63.10
69855;BME280;57146;48.140;16.304;2023-04-21T08:22:46;99417.06;;;14.76;63.65
69855;BME280;57146;48.140;16.304;2023-04-21T08:25:14;99424.41;;;14.71;64.08
69855;BME280;57146;48.140;16.304;2023-04-21T08:27:40;99423.91;;;14.77;64.82
69855;BME280;57146;48.140;16.304;2023-04-21T08:30:08;99415.69;;;14.91;63.12
69855;BME280;57146;48.140;16.304;2023-04-21T08:32:36;99418.75;;;15.14;64.26
69855;BME280;57146;48.140;16.304;2023-04-21T08:35:03;99415.47;;;15.17;60.77
69855;BME280;57146;48.140;16.304;2023-04-21T08:37:30;99413.66;;;15.09;61.37
69855;BME280;57146;48.140;16.304;2023-04-21T08:39:57;99416.69;;;15.20;62.61
69855;BME280;57146;48.140;16.304;2023-04-21T08:42:24;99412.53;;;15.31;62.19
69855;BME280;57146;48.140;16.304;2023-04-21T08:44:50;99411.13;;;15.46;61.06
69855;BME280;57146;48.140;16.304;2023-04-21T08:47:19;99408.81;;;15.44;60.08
69855;BME280;57146;48.140;16.304;2023-04-21T08:49:52;99408.47;;;15.46;57.34
69855;BME280;57146;48.140;16.304;2023-04-21T08:52:21;99407.31;;;15.68;57.56
69855;BME280;57146;48.140;16.304;2023-04-21T08:54:48;99407.53;;;15.63;55.25
69855;BME280;57146;48.140;16.304;2023-04-21T08:57:15;99405.44;;;15.68;56.21
69855;BME280;57146;48.140;16.304;2023-04-21T08:59:43;99396.41;;;15.69;55.06
69855;BME280;57146;48.140;16.304;2023-04-21T09:02:17;99401.34;;;15.71;54.12
69855;BME280;57146;48.140;16.304;2023-04-21T09:04:46;99394.09;;;15.80;54.17
69855;BME280;57146;48.140;16.304;2023-04-21T09:07:34;99394.06;;;15.68;54.72
69855;BME280;57146;48.140;16.304;2023-04-21T09:10:04;99397.84;;;15.91;54.11
69855;BME280;57146;48.140;16.304;2023-04-21T09:12:31;99396.28;;;16.02;52.40
69855;BME280;57146;48.140;16.304;2023-04-21T09:14:58;99394.84;;;15.93;51.33
69855;BME280;57146;48.140;16.304;2023-04-21T09:17:29;99388.78;;;15.80;53.17
69855;BME280;57146;48.140;16.304;2023-04-21T09:19:57;99398.50;;;16.00;51.40
69855;BME280;57146;48.140;16.304;2023-04-21T09:22:37;99393.06;;;15.97;49.50
69855;BME280;57146;48.140;16.304;2023-04-21T09:25:04;99389.88;;;16.03;49.55
69855;BME280;57146;48.140;16.304;2023-04-21T09:27:37;99398.94;;;16.02;50.18
69855;BME280;57146;48.140;16.304;2023-04-21T09:30:05;99389.66;;;16.09;49.63
69855;BME280;57146;48.140;16.304;2023-04-21T09:32:37;99393.84;;;16.10;49.25
69855;BME280;57146;48.140;16.304;2023-04-21T09:35:07;99386.09;;;16.17;49.23
69855;BME280;57146;48.140;16.304;2023-04-21T09:37:36;99387.28;;;16.32;50.58
69855;BME280;57146;48.140;16.304;2023-04-21T09:40:04;99385.41;;;16.32;47.90
69855;BME280;57146;48.140;16.304;2023-04-21T09:42:32;99379.06;;;16.49;47.83
69855;BME280;57146;48.140;16.304;2023-04-21T09:45:04;99373.09;;;16.40;47.46
69855;BME280;57146;48.140;16.304;2023-04-21T09:47:39;99379.94;;;16.53;48.86
69855;BME280;57146;48.140;16.304;2023-04-21T09:50:07;99371.84;;;16.62;46.54
69855;BME280;57146;48.140;16.304;2023-04-21T09:52:38;99370.53;;;16.56;47.09
69855;BME280;57146;48.140;16.304;2023-04-21T09:55:12;99372.94;;;16.61;45.79
69855;BME280;57146;48.140;16.304;2023-04-21T09:57:41;99367.44;;;16.53;44.59
69855;BME280;57146;48.140;16.304;2023-04-21T10:00:11;99363.81;;;16.46;44.79
69855;BME280;57146;48.140;16.304;2023-04-21T10:02:49;99357.97;;;16.40;44.29
69855;BME280;57146;48.140;16.304;2023-04-21T10:05:17;99359.63;;;16.33;45.59
69855;BME280;57146;48.140;16.304;2023-04-21T10:07:45;99370.69;;;16.35;43.63
69855;BME280;57146;48.140;16.304;2023-04-21T10:12:44;99362.94;;;16.42;44.39
69855;BME280;57146;48.140;16.304;2023-04-21T10:15:30;99361.91;;;16.46;43.09
69855;BME280;57146;48.140;16.304;2023-04-21T10:18:20;99364.09;;;16.57;43.27
69855;BME280;57146;48.140;16.304;2023-04-21T10:20:55;99355.47;;;16.60;46.96
69855;BME280;57146;48.140;16.304;2023-04-21T10:23:30;99354.34;;;16.61;45.96
69855;BME280;57146;48.140;16.304;2023-04-21T10:26:02;99352.34;;;16.58;44.02
69855;BME280;57146;48.140;16.304;2023-04-21T10:31:31;99345.75;;;16.51;44.74
69855;BME280;57146;48.140;16.304;2023-04-21T10:36:41;99336.31;;;16.54;45.46
69855;BME280;57146;48.140;16.304;2023-04-21T10:39:08;99341.25;;;16.68;44.77
69855;BME280;57146;48.140;16.304;2023-04-21T10:41:35;99340.38;;;16.64;43.21
69855;BME280;57146;48.140;16.304;2023-04-21T10:44:22;99340.28;;;16.60;43.36
69855;BME280;57146;48.140;16.304;2023-04-21T10:46:53;99330.44;;;16.61;42.39
69855;BME280;57146;48.140;16.304;2023-04-21T10:49:23;99327.25;;;16.55;42.43
69855;BME280;57146;48.140;16.304;2023-04-21T10:54:24;99328.94;;;16.47;43.21
69855;BME280;57146;48.140;16.304;2023-04-21T10:56:53;99323.84;;;16.42;44.40
69855;BME280;57146;48.140;16.304;2023-04-21T10:59:21;99320.31;;;16.38;44.29
69855;BME280;57146;48.140;16.304;2023-04-21T11:01:48;99318.13;;;16.40;44.29
69855;BME280;57146;48.140;16.304;2023-04-21T11:04:19;99312.81;;;16.40;45.42
69855;BME280;57146;48.140;16.304;2023-04-21T11:07:06;99314.84;;;16.47;45.87
69855;BME280;57146;48.140;16.304;2023-04-21T11:09:34;99320.28;;;16.50;46.12
69855;BME280;57146;48.140;16.304;2023-04-21T11:12:04;99315.22;;;16.45;46.67
69855;BME280;57146;48.140;16.304;2023-04-21T11:14:33;99308.47;;;16.36;47.14
69855;BME280;57146;48.140;16.304;2023-04-21T11:17:03;99302.84;;;16.37;47.50
69855;BME280;57146;48.140;16.304;2023-04-21T11:19:33;99304.94;;;16.44;48.66
69855;BME280;57146;48.140;16.304;2023-04-21T11:22:00;99309.31;;;16.52;46.96
69855;BME280;57146;48.140;16.304;2023-04-21T11:24:32;99298.78;;;16.56;47.34
69855;BME280;57146;48.140;16.304;2023-04-21T11:27:07;99303.00;;;16.57;45.94
69855;BME280;57146;48.140;16.304;2023-04-21T11:29:34;99297.56;;;16.53;46.18
69855;BME280;57146;48.140;16.304;2023-04-21T11:32:05;99292.25;;;16.53;45.53
69855;BME280;57146;48.140;16.304;2023-04-21T11:34:32;99287.31;;;16.51;44.86
69855;BME280;57146;48.140;16.304;2023-04-21T11:36:59;99286.28;;;16.56;44.67
69855;BME280;57146;48.140;16.304;2023-04-21T11:39:26;99291.69;;;16.60;45.27
69855;BME280;57146;48.140;16.304;2023-04-21T11:42:20;99285.88;;;16.70;44.27
69855;BME280;57146;48.140;16.304;2023-04-21T11:44:47;99285.22;;;16.73;44.37
69855;BME280;57146;48.140;16.304;2023-04-21T11:47:25;99287.22;;;16.76;43.90
69855;BME280;57146;48.140;16.304;2023-04-21T11:49:54;99281.56;;;16.78;43.66
69855;BME280;57146;48.140;16.304;2023-04-21T11:52:31;99284.13;;;16.74;43.27
69855;BME280;57146;48.140;16.304;2023-04-21T11:55:13;99285.66;;;16.75;43.49
69855;BME280;57146;48.140;16.304;2023-04-21T11:57:40;99283.03;;;16.91;44.27
69855;BME280;57146;48.140;16.304;2023-04-21T12:00:09;99278.22;;;16.96;43.65
69855;BME280;57146;48.140;16.304;2023-04-21T12:02:36;99282.69;;;16.92;41.61
69855;BME280;57146;48.140;16.304;2023-04-21T12:05:09;99271.38;;;16.80;41.82
69855;BME280;57146;48.140;16.304;2023-04-21T12:07:40;99269.97;;;16.86;43.40
69855;BME280;57146;48.140;16.304;2023-04-21T12:10:11;99268.44;;;16.85;42.86
69855;BME280;57146;48.140;16.304;2023-04-21T12:12:40;99265.47;;;16.86;42.26
69855;BME280;57146;48.140;16.304;2023-04-21T12:15:11;99268.81;;;16.83;42.98
69855;BME280;57146;48.140;16.304;2023-04-21T12:17:42;99262.28;;;16.81;43.99
69855;BME280;57146;48.140;16.304;2023-04-21T12:20:10;99256.59;;;16.82;42.53
69855;BME280;57146;48.140;16.304;2023-04-21T12:22:37;99245.38;;;16.89;42.92
69855;BME280;57146;48.140;16.304;2023-04-21T12:25:05;99259.88;;;16.91;42.52
69855;BME280;57146;48.140;16.304;2023-04-21T12:27:32;99265.19;;;16.91;42.28
69855;BME280;57146;48.140;16.304;2023-04-21T12:29:59;99250.69;;;16.89;42.37
69855;BME280;57146;48.140;16.304;2023-04-21T12:32:26;99253.03;;;16.90;42.33
69855;BME280;57146;48.140;16.304;2023-04-21T12:34:53;99247.53;;;16.83;41.50
69855;BME280;57146;48.140;16.304;2023-04-21T12:37:20;99249.84;;;16.85;42.33
69855;BME280;57146;48.140;16.304;2023-04-21T12:39:47;99246.50;;;16.88;41.58
69855;BME280;57146;48.140;16.304;2023-04-21T12:42:14;99247.63;;;16.87;41.86
69855;BME280;57146;48.140;16.304;2023-04-21T12:44:41;99242.13;;;16.95;40.25
69855;BME280;57146;48.140;16.304;2023-04-21T12:47:07;99238.69;;;16.95;41.02
69855;BME280;57146;48.140;16.304;2023-04-21T12:49:34;99233.56;;;17.02;41.35
69855;BME280;57146;48.140;16.304;2023-04-21T12:52:01;99230.53;;;17.04;40.85
69855;BME280;57146;48.140;16.304;2023-04-21T12:54:28;99230.22;;;17.05;42.03
69855;BME280;57146;48.140;16.304;2023-04-21T12:56:55;99229.44;;;17.05;41.54
69855;BME280;57146;48.140;16.304;2023-04-21T12:59:23;99229.88;;;17.07;40.31
69855;BME280;57146;48.140;16.304;2023-04-21T13:01:50;99226.09;;;17.08;39.94
69855;BME280;57146;48.140;16.304;2023-04-21T13:04:17;99230.72;;;17.11;40.77
69855;BME280;57146;48.140;16.304;2023-04-21T13:06:44;99226.97;;;17.12;39.26
69855;BME280;57146;48.140;16.304;2023-04-21T13:09:11;99221.28;;;17.13;39.25
69855;BME280;57146;48.140;16.304;2023-04-21T13:11:38;99222.06;;;17.14;39.39